createdAt,value
2023-01-01T00:02:01.488Z,12.73
2023-01-01T00:04:04.345Z,12.72
2023-01-01T00:06:07.762Z,12.74
2023-01-01T00:08:10.363Z,12.74
2023-01-01T00:10:30.301Z,12.78
2023-01-01T00:12:33.171Z,12.80
2023-01-01T00:14:39.148Z,12.74
2023-01-01T00:16:41.922Z,12.72
2023-01-01T00:18:44.669Z,12.81
2023-01-01T00:20:47.307Z,12.80
2023-01-01T00:22:55.029Z,12.78
2023-01-01T00:24:58.579Z,12.77
2023-01-01T00:27:01.172Z,12.88
2023-01-01T00:29:04.486Z,12.89
2023-01-01T00:31:09.107Z,12.92
2023-01-01T00:33:11.786Z,12.91
2023-01-01T00:35:14.448Z,12.90
2023-01-01T00:37:18.239Z,12.87
2023-01-01T00:39:21.009Z,12.89
2023-01-01T00:41:24.251Z,13.00
2023-01-01T00:43:26.896Z,13.20
2023-01-01T00:45:29.501Z,13.12
2023-01-01T00:47:33.539Z,13.17
2023-01-01T00:49:36.290Z,13.11
2023-01-01T00:51:38.952Z,13.03
2023-01-01T00:53:41.633Z,12.97
2023-01-01T00:55:44.773Z,12.98
2023-01-01T00:57:47.357Z,12.97
2023-01-01T00:59:50.384Z,12.91
2023-01-01T01:01:53.199Z,12.99
2023-01-01T01:03:57.257Z,12.89
2023-01-01T01:06:01.670Z,12.91
2023-01-01T01:08:04.673Z,12.90
2023-01-01T01:10:09.523Z,12.82
2023-01-01T01:12:17.825Z,12.87
2023-01-01T01:14:21.645Z,12.82
2023-01-01T01:16:26.931Z,12.98
2023-01-01T01:18:29.611Z,12.91
2023-01-01T01:20:33.607Z,12.82
2023-01-01T01:22:36.473Z,12.83
2023-01-01T01:24:39.145Z,12.72
2023-01-01T01:26:41.797Z,12.84
2023-01-01T01:28:49.371Z,12.76
2023-01-01T01:30:52.810Z,12.65
2023-01-01T01:32:55.482Z,12.62
2023-01-01T01:34:58.042Z,12.62
2023-01-01T01:37:02.009Z,12.66
2023-01-01T01:39:04.780Z,12.68
2023-01-01T01:41:07.829Z,12.64
2023-01-01T01:43:20.527Z,12.63
2023-01-01T01:45:27.036Z,12.67
2023-01-01T01:47:39.127Z,12.75
2023-01-01T01:49:43.339Z,12.78
2023-01-01T01:51:46.888Z,12.88
2023-01-01T01:53:54.483Z,12.96
2023-01-01T01:56:00.783Z,12.90
2023-01-01T01:58:04.650Z,12.89
2023-01-01T02:00:11.655Z,12.82
2023-01-01T02:02:21.239Z,12.76
2023-01-01T02:04:24.070Z,12.94
2023-01-01T02:06:28.456Z,12.92
2023-01-01T02:08:31.248Z,12.87
2023-01-01T02:10:35.385Z,12.91
2023-01-01T02:12:38.098Z,12.85
2023-01-01T02:14:40.821Z,12.97
2023-01-01T02:16:46.917Z,13.05
2023-01-01T02:18:59.046Z,13.03
2023-01-01T02:21:09.553Z,13.24
2023-01-01T02:23:39.682Z,13.20
2023-01-01T02:25:53.779Z,13.16
2023-01-01T02:28:02.330Z,13.08
2023-01-01T02:30:08.511Z,13.00
2023-01-01T02:32:13.864Z,13.05
2023-01-01T02:34:21.139Z,13.11
2023-01-01T02:36:26.309Z,13.20
2023-01-01T02:38:32.486Z,13.23
2023-01-01T02:40:39.146Z,13.30
2023-01-01T02:42:41.915Z,13.17
2023-01-01T02:44:49.637Z,13.39
2023-01-01T02:46:53.582Z,13.35
2023-01-01T02:48:56.152Z,13.24
2023-01-01T02:51:05.108Z,13.22
2023-01-01T02:53:15.385Z,13.06
2023-01-01T02:55:28.278Z,12.99
2023-01-01T02:57:36.532Z,13.14
2023-01-01T03:00:11.014Z,13.10
2023-01-01T03:02:23.712Z,13.23
2023-01-01T03:04:32.520Z,13.33
2023-01-01T03:06:42.036Z,13.30
2023-01-01T03:08:50.845Z,13.46
2023-01-01T03:10:59.977Z,13.31
2023-01-01T03:13:10.370Z,13.53
2023-01-01T03:15:21.481Z,13.32
2023-01-01T03:17:31.645Z,13.21
2023-01-01T03:19:38.567Z,13.19
2023-01-01T03:21:49.471Z,13.26
2023-01-01T03:23:54.863Z,13.21
2023-01-01T03:26:03.642Z,13.25
2023-01-01T03:28:11.881Z,13.14
2023-01-01T03:30:17.725Z,13.15
2023-01-01T03:32:44.994Z,13.09
2023-01-01T03:34:54.583Z,13.04
2023-01-01T03:37:01.224Z,13.03
2023-01-01T03:39:06.438Z,13.08
2023-01-01T03:41:14.066Z,12.94
2023-01-01T03:43:23.003Z,12.86
2023-01-01T03:45:29.180Z,12.91
2023-01-01T03:47:32.431Z,12.82
2023-01-01T03:49:35.815Z,12.88
2023-01-01T03:52:06.054Z,12.92
2023-01-01T03:54:14.005Z,12.85
2023-01-01T03:56:23.103Z,12.79
2023-01-01T03:58:32.859Z,12.76
2023-01-01T04:00:38.729Z,12.71
2023-01-01T04:02:46.031Z,12.74
2023-01-01T04:04:50.334Z,12.77
2023-01-01T04:06:53.172Z,12.81
2023-01-01T04:09:00.098Z,12.82
2023-01-01T04:11:26.987Z,12.82
2023-01-01T04:13:29.593Z,12.83
2023-01-01T04:15:33.297Z,12.76
2023-01-01T04:17:35.972Z,12.70
2023-01-01T04:19:39.024Z,12.67
2023-01-01T04:21:41.673Z,12.73
2023-01-01T04:23:44.317Z,12.79
2023-01-01T04:25:48.467Z,12.78
2023-01-01T04:27:51.140Z,12.72
2023-01-01T04:29:53.699Z,12.78
2023-01-01T04:31:56.616Z,12.83
2023-01-01T04:33:59.180Z,12.78
2023-01-01T04:36:06.026Z,12.85
2023-01-01T04:38:08.598Z,13.01
2023-01-01T04:40:12.542Z,13.02
2023-01-01T04:42:16.638Z,12.96
2023-01-01T04:44:19.836Z,12.93
2023-01-01T04:46:23.916Z,12.82
2023-01-01T04:48:27.608Z,12.73
2023-01-01T04:50:30.238Z,12.77
2023-01-01T04:52:32.795Z,12.82
2023-01-01T04:54:35.444Z,12.74
2023-01-01T04:56:38.134Z,12.66
2023-01-01T04:58:43.605Z,12.66
2023-01-01T05:00:50.150Z,12.66
2023-01-01T05:02:52.671Z,12.58
2023-01-01T05:04:55.374Z,12.55
2023-01-01T05:06:58.083Z,12.54
2023-01-01T05:09:01.235Z,12.52
2023-01-01T05:11:06.128Z,12.46
2023-01-01T05:13:09.885Z,12.50
2023-01-01T05:15:13.954Z,12.59
2023-01-01T05:17:16.618Z,12.64
2023-01-01T05:19:19.216Z,12.60
2023-01-01T05:21:23.831Z,12.63
2023-01-01T05:23:26.404Z,12.51
2023-01-01T05:25:28.953Z,12.53
2023-01-01T05:27:31.585Z,12.50
2023-01-01T05:29:34.486Z,12.51
2023-01-01T05:31:39.061Z,12.49
2023-01-01T05:33:42.816Z,12.50
2023-01-01T05:35:47.460Z,12.46
2023-01-01T05:37:51.973Z,12.38
2023-01-01T05:39:54.668Z,12.36
2023-01-01T05:41:57.279Z,12.36
2023-01-01T05:43:59.839Z,12.31
2023-01-01T05:46:03.280Z,12.27
2023-01-01T05:48:07.737Z,12.24
2023-01-01T05:52:12.293Z,12.33
2023-01-01T05:56:17.767Z,12.11
2023-01-01T05:58:20.400Z,12.05
2023-01-01T06:00:23.482Z,12.02
2023-01-01T06:02:26.296Z,12.04
2023-01-01T06:04:30.525Z,11.95
2023-01-01T06:06:34.000Z,11.91
2023-01-01T06:08:36.763Z,11.95
2023-01-01T06:10:39.408Z,11.94
2023-01-01T06:12:41.960Z,12.00
2023-01-01T06:14:44.565Z,11.95
2023-01-01T06:16:47.221Z,11.89
2023-01-01T06:18:50.354Z,11.92
2023-01-01T06:20:54.281Z,11.83
2023-01-01T06:22:56.899Z,11.94
2023-01-01T06:24:59.441Z,11.92
2023-01-01T06:27:02.119Z,11.84
2023-01-01T06:29:04.804Z,11.91
2023-01-01T06:31:09.109Z,11.89
2023-01-01T06:33:11.770Z,11.91
2023-01-01T06:35:14.471Z,11.92
2023-01-01T06:37:18.420Z,11.98
2023-01-01T06:39:21.041Z,11.93
2023-01-01T06:41:25.352Z,12.08
2023-01-01T06:43:28.242Z,12.17
2023-01-01T06:45:30.823Z,12.14
2023-01-01T06:47:34.836Z,12.10
2023-01-01T06:49:37.586Z,12.04
2023-01-01T06:51:41.739Z,12.07
2023-01-01T06:53:45.783Z,11.98
2023-01-01T06:55:53.375Z,11.93
2023-01-01T06:57:59.480Z,12.07
2023-01-01T07:00:02.142Z,12.16
2023-01-01T07:02:04.992Z,12.15
2023-01-01T07:04:11.337Z,12.04
2023-01-01T07:06:13.925Z,12.09
2023-01-01T07:08:16.498Z,12.11
2023-01-01T07:10:20.406Z,12.15
2023-01-01T07:12:23.022Z,12.18
2023-01-01T07:14:25.643Z,12.24
2023-01-01T07:16:28.363Z,12.15
2023-01-01T07:18:30.965Z,12.13
2023-01-01T07:20:33.552Z,12.30
2023-01-01T07:22:37.228Z,12.39
2023-01-01T07:24:39.991Z,12.43
2023-01-01T07:26:44.249Z,12.47
2023-01-01T07:28:46.839Z,12.47
2023-01-01T07:30:49.935Z,12.52
2023-01-01T07:32:55.920Z,12.49
2023-01-01T07:34:58.565Z,12.64
2023-01-01T07:37:01.247Z,12.74
2023-01-01T07:39:03.841Z,12.84
2023-01-01T07:41:06.608Z,12.97
2023-01-01T07:43:12.377Z,13.21
2023-01-01T07:45:15.075Z,13.16
2023-01-01T07:47:22.825Z,13.18
2023-01-01T07:49:25.443Z,13.12
2023-01-01T07:51:28.034Z,13.03
2023-01-01T07:53:30.610Z,13.16
2023-01-01T07:55:34.031Z,13.15
2023-01-01T07:57:36.630Z,13.01
2023-01-01T07:59:40.639Z,12.94
2023-01-01T08:01:43.375Z,12.87
2023-01-01T08:03:46.103Z,13.02
2023-01-01T08:05:48.805Z,12.70
2023-01-01T08:07:52.213Z,12.79
2023-01-01T08:09:54.851Z,12.74
2023-01-01T08:11:58.525Z,12.80
2023-01-01T08:14:01.239Z,12.74
2023-01-01T08:16:06.094Z,12.74
2023-01-01T08:18:08.809Z,12.68
2023-01-01T08:20:11.897Z,12.88
2023-01-01T08:22:14.541Z,12.79
2023-01-01T08:24:17.257Z,12.48
2023-01-01T08:26:29.197Z,12.52
2023-01-01T08:28:32.205Z,12.80
2023-01-01T08:30:34.816Z,12.29
2023-01-01T08:32:38.814Z,12.21
2023-01-01T08:34:41.702Z,12.16
2023-01-01T08:36:44.291Z,12.08
2023-01-01T08:38:46.886Z,11.98
2023-01-01T08:40:49.567Z,11.99
2023-01-01T08:42:52.200Z,12.06
2023-01-01T08:44:54.872Z,12.31
2023-01-01T08:46:57.549Z,12.49
2023-01-01T08:49:01.567Z,12.66
2023-01-01T08:51:04.333Z,12.83
2023-01-01T08:53:06.966Z,12.81
2023-01-01T08:55:10.585Z,12.74
2023-01-01T08:57:13.969Z,12.94
2023-01-01T08:59:16.604Z,13.45
2023-01-01T09:01:21.585Z,13.73
2023-01-01T09:03:24.656Z,14.20
2023-01-01T09:05:28.696Z,14.11
2023-01-01T09:07:31.397Z,14.21
2023-01-01T09:09:34.077Z,14.38
2023-01-01T09:11:37.375Z,14.38
2023-01-01T09:13:40.013Z,14.17
2023-01-01T09:15:43.796Z,14.12
2023-01-01T09:17:46.384Z,14.83
2023-01-01T09:19:48.992Z,14.62
2023-01-01T09:21:53.492Z,14.70
2023-01-01T09:23:56.132Z,14.76
2023-01-01T09:26:03.404Z,14.23
2023-01-01T09:28:08.231Z,14.29
2023-01-01T09:30:12.201Z,14.09
2023-01-01T09:32:14.809Z,13.93
2023-01-01T09:34:18.095Z,14.52
2023-01-01T09:36:28.904Z,14.43
2023-01-01T09:38:32.919Z,14.23
2023-01-01T09:40:51.588Z,14.53
2023-01-01T09:43:04.952Z,14.30
2023-01-01T09:45:22.524Z,14.23
2023-01-01T09:47:31.416Z,14.50
2023-01-01T09:49:39.104Z,14.30
2023-01-01T09:51:51.077Z,14.43
2023-01-01T09:54:06.318Z,14.26
2023-01-01T09:56:15.910Z,14.11
2023-01-01T09:58:25.359Z,14.13
2023-01-01T10:00:31.621Z,14.13
2023-01-01T10:02:51.744Z,14.18
2023-01-01T10:05:04.251Z,14.15
2023-01-01T10:07:18.460Z,14.04
2023-01-01T10:09:28.789Z,14.23
2023-01-01T10:11:41.273Z,14.30
2023-01-01T10:13:44.314Z,14.42
2023-01-01T10:15:55.448Z,14.43
2023-01-01T10:18:01.165Z,14.47
2023-01-01T10:20:11.914Z,14.55
2023-01-01T10:22:19.913Z,14.75
2023-01-01T10:24:47.011Z,15.30
2023-01-01T10:26:51.760Z,15.06
2023-01-01T10:29:02.047Z,14.89
2023-01-01T10:31:18.576Z,14.85
2023-01-01T10:33:21.194Z,14.99
2023-01-01T10:35:30.991Z,14.58
2023-01-01T10:37:38.531Z,14.54
2023-01-01T10:39:41.549Z,14.73
2023-01-01T10:41:46.687Z,14.78
2023-01-01T10:43:50.429Z,14.65
2023-01-01T10:45:55.804Z,15.05
2023-01-01T10:48:19.023Z,15.11
2023-01-01T10:50:21.626Z,15.26
2023-01-01T10:52:28.793Z,15.37
2023-01-01T10:54:36.807Z,15.58
2023-01-01T10:56:43.339Z,15.59
2023-01-01T10:58:48.325Z,15.75
2023-01-01T11:00:59.653Z,15.74
2023-01-01T11:03:15.364Z,15.64
2023-01-01T11:05:22.282Z,15.57
2023-01-01T11:07:30.120Z,15.64
2023-01-01T11:09:32.909Z,15.72
2023-01-01T11:11:43.360Z,15.79
2023-01-01T11:13:50.749Z,15.72
2023-01-01T11:15:53.830Z,15.79
2023-01-01T11:18:04.565Z,15.87
2023-01-01T11:20:08.518Z,15.82
2023-01-01T11:22:39.368Z,15.90
2023-01-01T11:24:42.207Z,15.74
2023-01-01T11:26:50.560Z,16.01
2023-01-01T11:29:03.211Z,15.81
2023-01-01T11:31:14.138Z,15.91
2023-01-01T11:33:18.287Z,15.81
2023-01-01T11:35:23.716Z,15.92
2023-01-01T11:37:33.169Z,15.98
2023-01-01T11:39:37.457Z,15.85
2023-01-01T11:41:45.821Z,15.97
2023-01-01T11:43:49.997Z,15.87
2023-01-01T11:45:55.627Z,15.94
2023-01-01T11:48:03.457Z,16.14
2023-01-01T11:50:20.449Z,15.91
2023-01-01T11:52:45.366Z,16.01
2023-01-01T11:54:48.683Z,16.17
2023-01-01T11:56:55.724Z,16.30
2023-01-01T11:59:00.953Z,16.50
2023-01-01T12:01:10.867Z,16.42
2023-01-01T12:03:25.547Z,16.37
2023-01-01T12:05:42.554Z,16.55
2023-01-01T12:07:45.826Z,16.39
2023-01-01T12:09:55.773Z,16.52
2023-01-01T12:12:05.085Z,16.55
2023-01-01T12:14:18.113Z,16.62
2023-01-01T12:16:29.487Z,16.66
2023-01-01T12:18:38.220Z,16.60
2023-01-01T12:20:46.521Z,16.60
2023-01-01T12:22:50.018Z,16.61
2023-01-01T12:24:53.464Z,16.62
2023-01-01T12:27:13.933Z,16.67
2023-01-01T12:29:35.894Z,16.75
2023-01-01T12:31:49.883Z,16.77
2023-01-01T12:34:09.723Z,16.69
2023-01-01T12:36:26.610Z,16.60
2023-01-01T12:38:45.274Z,16.67
2023-01-01T12:40:54.000Z,16.64
2023-01-01T12:43:02.883Z,16.83
2023-01-01T12:45:34.130Z,16.75
2023-01-01T12:47:46.890Z,16.83
2023-01-01T12:50:01.300Z,16.89
2023-01-01T12:52:15.842Z,16.97
2023-01-01T12:54:47.337Z,17.08
2023-01-01T12:56:58.038Z,17.06
2023-01-01T12:59:05.357Z,17.11
2023-01-01T13:01:13.707Z,17.10
2023-01-01T13:03:22.223Z,17.36
2023-01-01T13:05:29.815Z,17.38
2023-01-01T13:07:38.980Z,17.50
2023-01-01T13:09:45.359Z,17.51
2023-01-01T13:11:51.695Z,17.49
2023-01-01T13:13:54.710Z,17.49
2023-01-01T13:15:58.485Z,17.50
2023-01-01T13:18:02.189Z,17.31
2023-01-01T13:20:23.772Z,17.47
2023-01-01T13:22:43.026Z,17.27
2023-01-01T13:25:04.885Z,17.38
2023-01-01T13:27:10.987Z,17.22
2023-01-01T13:29:45.366Z,17.17
2023-01-01T13:32:08.582Z,17.20
2023-01-01T13:35:05.774Z,17.21
2023-01-01T13:37:30.164Z,17.19
2023-01-01T13:39:52.775Z,17.29
2023-01-01T13:41:55.474Z,17.64
2023-01-01T13:44:23.106Z,17.66
2023-01-01T13:46:33.709Z,17.51
2023-01-01T13:49:07.310Z,17.36
2023-01-01T13:52:03.649Z,17.36
2023-01-01T13:54:07.336Z,17.49
2023-01-01T13:56:26.787Z,17.50
2023-01-01T13:59:07.749Z,17.32
2023-01-01T14:01:36.534Z,17.50
2023-01-01T14:03:43.495Z,17.35
2023-01-01T14:05:50.325Z,17.15
2023-01-01T14:07:54.556Z,17.24
2023-01-01T14:10:24.774Z,17.13
2023-01-01T14:12:27.415Z,17.12
2023-01-01T14:14:30.902Z,17.07
2023-01-01T14:16:33.616Z,17.31
2023-01-01T14:18:40.666Z,17.12
2023-01-01T14:20:45.463Z,17.05
2023-01-01T14:22:49.906Z,17.05
2023-01-01T14:24:53.870Z,17.06
2023-01-01T14:26:57.906Z,17.11
2023-01-01T14:29:03.437Z,16.95
2023-01-01T14:31:11.483Z,16.91
2023-01-01T14:33:24.064Z,16.87
2023-01-01T14:35:27.275Z,16.74
2023-01-01T14:37:29.934Z,16.84
2023-01-01T14:39:34.236Z,16.87
2023-01-01T14:41:39.005Z,16.79
2023-01-01T14:43:46.037Z,16.93
2023-01-01T14:45:48.761Z,16.57
2023-01-01T14:47:53.659Z,16.48
2023-01-01T14:50:01.809Z,16.45
2023-01-01T14:52:09.677Z,16.18
2023-01-01T14:54:17.294Z,16.17
2023-01-01T14:56:29.022Z,16.14
2023-01-01T14:58:32.069Z,16.23
2023-01-01T15:00:36.145Z,15.87
2023-01-01T15:02:39.735Z,16.00
2023-01-01T15:04:43.023Z,15.84
2023-01-01T15:06:45.715Z,15.87
2023-01-01T15:08:50.321Z,15.86
2023-01-01T15:10:53.826Z,15.80
2023-01-01T15:12:57.322Z,15.76
2023-01-01T15:14:59.973Z,15.74
2023-01-01T15:17:05.508Z,15.80
2023-01-01T15:19:18.182Z,15.60
2023-01-01T15:21:38.313Z,15.45
2023-01-01T15:23:49.759Z,15.30
2023-01-01T15:25:52.504Z,15.22
2023-01-01T15:27:57.990Z,15.17
2023-01-01T15:30:01.394Z,15.15
2023-01-01T15:32:09.171Z,15.14
2023-01-01T15:34:24.755Z,14.94
2023-01-01T15:36:27.502Z,14.93
2023-01-01T15:38:34.302Z,14.88
2023-01-01T15:40:37.199Z,15.04
2023-01-01T15:42:41.907Z,14.86
2023-01-01T15:44:44.559Z,14.96
2023-01-01T15:46:48.427Z,14.74
2023-01-01T15:48:53.594Z,14.68
2023-01-01T15:51:05.346Z,14.75
2023-01-01T15:53:12.481Z,14.61
2023-01-01T15:55:16.580Z,14.49
2023-01-01T15:57:23.273Z,14.48
2023-01-01T15:59:29.990Z,14.46
2023-01-01T16:01:36.541Z,14.48
2023-01-01T16:03:41.869Z,14.43
2023-01-01T16:05:50.723Z,14.26
2023-01-01T16:07:59.207Z,14.18
2023-01-01T16:10:01.839Z,14.13
2023-01-01T16:12:04.643Z,14.07
2023-01-01T16:14:07.332Z,14.07
2023-01-01T16:16:25.041Z,14.10
2023-01-01T16:18:30.861Z,14.03
2023-01-01T16:20:33.485Z,14.01
2023-01-01T16:22:37.592Z,13.96
2023-01-01T16:24:40.201Z,13.99
2023-01-01T16:26:42.877Z,13.81
2023-01-01T16:28:45.713Z,13.71
2023-01-01T16:30:48.565Z,13.81
2023-01-01T16:32:51.171Z,13.86
2023-01-01T16:34:53.831Z,13.86
2023-01-01T16:36:56.468Z,13.79
2023-01-01T16:39:00.452Z,13.88
2023-01-01T16:41:03.077Z,13.85
2023-01-01T16:43:09.356Z,13.93
2023-01-01T16:45:18.353Z,13.94
2023-01-01T16:47:21.099Z,13.90
2023-01-01T16:49:23.756Z,13.90
2023-01-01T16:51:29.198Z,13.86
2023-01-01T16:53:31.853Z,13.86
2023-01-01T16:55:35.935Z,13.87
2023-01-01T16:57:39.998Z,13.84
2023-01-01T16:59:42.656Z,13.82
2023-01-01T17:01:45.765Z,13.80
2023-01-01T17:03:48.453Z,13.76
2023-01-01T17:05:51.079Z,13.84
2023-01-01T17:07:53.746Z,13.80
2023-01-01T17:09:56.420Z,13.82
2023-01-01T17:12:00.362Z,13.76
2023-01-01T17:14:03.414Z,13.64
2023-01-01T17:16:06.807Z,13.61
2023-01-01T17:18:11.012Z,13.65
2023-01-01T17:20:13.621Z,13.60
2023-01-01T17:22:16.267Z,13.50
2023-01-01T17:24:20.679Z,13.55
2023-01-01T17:26:25.712Z,13.51
2023-01-01T17:28:29.705Z,13.45
2023-01-01T17:30:32.461Z,13.51
2023-01-01T17:32:35.211Z,13.48
2023-01-01T17:34:37.817Z,13.53
2023-01-01T17:36:40.487Z,13.48
2023-01-01T17:38:44.188Z,13.39
2023-01-01T17:40:46.839Z,13.36
2023-01-01T17:42:49.496Z,13.30
2023-01-01T17:44:53.562Z,13.23
2023-01-01T17:46:56.280Z,13.24
2023-01-01T17:48:58.944Z,13.20
2023-01-01T17:51:01.774Z,13.17
2023-01-01T17:53:07.926Z,13.11
2023-01-01T17:55:15.562Z,12.98
2023-01-01T17:57:18.321Z,12.99
2023-01-01T17:59:20.941Z,12.96
2023-01-01T18:01:31.738Z,12.89
2023-01-01T18:03:34.625Z,12.94
2023-01-01T18:05:37.307Z,12.95
2023-01-01T18:07:39.944Z,12.96
2023-01-01T18:09:42.595Z,12.98
2023-01-01T18:11:45.468Z,12.97
2023-01-01T18:13:48.079Z,13.00
2023-01-01T18:15:50.709Z,13.07
2023-01-01T18:17:54.783Z,13.00
2023-01-01T18:19:57.418Z,12.98
2023-01-01T18:22:00.090Z,12.97
2023-01-01T18:24:03.213Z,12.84
2023-01-01T18:26:08.738Z,12.90
2023-01-01T18:28:11.313Z,12.81
2023-01-01T18:30:13.966Z,12.82
2023-01-01T18:32:16.585Z,12.74
2023-01-01T18:34:20.624Z,12.67
2023-01-01T18:36:25.304Z,12.66
2023-01-01T18:38:28.141Z,12.76
2023-01-01T18:40:34.134Z,12.68
2023-01-01T18:42:40.720Z,12.71
2023-01-01T18:44:43.446Z,12.71
2023-01-01T18:46:46.617Z,12.88
2023-01-01T18:48:53.925Z,12.94
2023-01-01T18:51:01.136Z,12.95
2023-01-01T18:53:14.096Z,13.02
2023-01-01T18:55:18.950Z,12.95
2023-01-01T18:57:29.355Z,12.95
2023-01-01T18:59:33.322Z,12.88
2023-01-01T19:01:36.197Z,12.90
2023-01-01T19:03:41.529Z,12.91
2023-01-01T19:05:45.755Z,12.94
2023-01-01T19:07:57.072Z,12.80
2023-01-01T19:09:59.840Z,12.81
2023-01-01T19:12:05.082Z,12.79
2023-01-01T19:14:15.873Z,12.78
2023-01-01T19:16:27.377Z,12.73
2023-01-01T19:18:32.746Z,12.73
2023-01-01T19:20:35.404Z,12.66
2023-01-01T19:22:38.004Z,12.52
2023-01-01T19:24:44.854Z,12.46
2023-01-01T19:26:48.656Z,12.42
2023-01-01T19:28:54.349Z,12.54
2023-01-01T19:30:57.017Z,12.61
2023-01-01T19:32:59.655Z,12.71
2023-01-01T19:35:02.279Z,12.63
2023-01-01T19:37:05.247Z,12.63
2023-01-01T19:39:08.570Z,12.57
2023-01-01T19:41:12.763Z,12.41
2023-01-01T19:43:15.391Z,12.45
2023-01-01T19:45:18.101Z,12.45
2023-01-01T19:47:20.684Z,12.44
2023-01-01T19:49:23.446Z,12.58
2023-01-01T19:51:26.661Z,12.50
2023-01-01T19:53:29.293Z,12.36
2023-01-01T19:55:31.909Z,12.52
2023-01-01T19:57:35.985Z,12.60
2023-01-01T19:59:38.602Z,12.67
2023-01-01T20:01:41.285Z,12.82
2023-01-01T20:03:54.064Z,12.64
2023-01-01T20:05:57.683Z,12.56
2023-01-01T20:08:00.298Z,12.53
2023-01-01T20:10:03.022Z,12.18
2023-01-01T20:12:05.699Z,12.04
2023-01-01T20:14:09.694Z,11.73
2023-01-01T20:16:12.393Z,11.60
2023-01-01T20:18:15.352Z,11.52
2023-01-01T20:20:18.152Z,11.60
2023-01-01T20:22:21.883Z,11.70
2023-01-01T20:24:24.536Z,11.74
2023-01-01T20:26:27.199Z,11.82
2023-01-01T20:29:01.776Z,11.87
2023-01-01T20:31:05.966Z,11.77
2023-01-01T20:33:08.537Z,11.67
2023-01-01T20:35:11.090Z,11.57
2023-01-01T20:37:31.494Z,11.50
2023-01-01T20:39:34.544Z,11.57
2023-01-01T20:41:37.113Z,11.59
2023-01-01T20:43:39.711Z,11.63
2023-01-01T20:45:42.329Z,11.48
2023-01-01T20:47:46.355Z,11.31
2023-01-01T20:49:49.094Z,11.33
2023-01-01T20:51:53.535Z,11.41
2023-01-01T20:53:56.535Z,11.50
2023-01-01T20:55:59.165Z,11.47
2023-01-01T20:58:01.777Z,11.63
2023-01-01T21:00:06.889Z,11.64
2023-01-01T21:02:11.657Z,11.76
2023-01-01T21:04:15.861Z,11.74
2023-01-01T21:06:23.870Z,11.74
2023-01-01T21:08:27.292Z,11.85
2023-01-01T21:10:30.484Z,11.94
2023-01-01T21:12:33.131Z,11.98
2023-01-01T21:14:35.956Z,12.07
2023-01-01T21:16:42.452Z,12.19
2023-01-01T21:18:45.527Z,12.21
2023-01-01T21:20:50.416Z,12.18
2023-01-01T21:22:53.746Z,12.24
2023-01-01T21:25:16.842Z,12.36
2023-01-01T21:27:25.022Z,12.29
2023-01-01T21:29:33.424Z,12.38
2023-01-01T21:31:38.891Z,12.42
2023-01-01T21:33:43.146Z,12.40
2023-01-01T21:35:45.820Z,12.49
2023-01-01T21:37:52.454Z,12.54
2023-01-01T21:39:55.281Z,12.64
2023-01-01T21:42:03.279Z,12.65
2023-01-01T21:44:12.134Z,12.70
2023-01-01T21:46:34.586Z,12.69
2023-01-01T21:48:40.407Z,12.67
2023-01-01T21:50:44.877Z,12.67
2023-01-01T21:52:47.814Z,12.73
2023-01-01T21:54:53.116Z,12.68
2023-01-01T21:56:58.377Z,12.72
2023-01-01T21:59:29.161Z,12.76
2023-01-01T22:01:38.307Z,12.76
2023-01-01T22:03:41.041Z,12.84
2023-01-01T22:05:43.707Z,12.82
2023-01-01T22:07:57.483Z,12.71
2023-01-01T22:10:13.450Z,12.69
2023-01-01T22:12:23.009Z,12.67
2023-01-01T22:14:28.535Z,12.60
2023-01-01T22:16:31.414Z,12.69
2023-01-01T22:18:39.767Z,12.61
2023-01-01T22:20:44.036Z,12.65
2023-01-01T22:22:46.681Z,12.66
2023-01-01T22:24:54.501Z,12.80
2023-01-01T22:27:26.833Z,12.80
2023-01-01T22:29:32.090Z,12.83
2023-01-01T22:31:36.316Z,12.87
2023-01-01T22:33:43.104Z,12.93
2023-01-01T22:35:45.870Z,12.97
2023-01-01T22:37:55.574Z,13.05
2023-01-01T22:40:00.279Z,13.07
2023-01-01T22:42:05.008Z,13.13
2023-01-01T22:44:07.761Z,13.37
2023-01-01T22:46:18.260Z,13.40
2023-01-01T22:48:24.774Z,13.43
2023-01-01T22:50:29.803Z,13.45
2023-01-01T22:52:32.625Z,13.33
2023-01-01T22:54:35.283Z,13.27
2023-01-01T22:56:37.908Z,13.33
2023-01-01T22:58:42.128Z,13.30
2023-01-01T23:00:44.836Z,13.22
2023-01-01T23:02:47.580Z,13.20
2023-01-01T23:04:50.283Z,13.20
2023-01-01T23:06:53.158Z,13.27
2023-01-01T23:08:57.060Z,13.07
2023-01-01T23:11:02.417Z,12.95
2023-01-01T23:13:19.032Z,13.03
2023-01-01T23:15:40.414Z,12.99
2023-01-01T23:17:43.162Z,12.99
2023-01-01T23:19:45.863Z,13.01
2023-01-01T23:21:48.869Z,13.02
2023-01-01T23:23:53.199Z,13.02
2023-01-01T23:25:56.659Z,13.11
2023-01-01T23:27:59.330Z,13.16
2023-01-01T23:30:03.383Z,13.14
2023-01-01T23:32:07.658Z,13.22
2023-01-01T23:34:10.551Z,13.31
2023-01-01T23:36:13.981Z,13.27
2023-01-01T23:38:17.198Z,13.37
2023-01-01T23:40:20.006Z,13.53
2023-01-01T23:42:22.646Z,13.42
2023-01-01T23:44:25.281Z,13.48
2023-01-01T23:46:28.143Z,13.46
2023-01-01T23:48:32.162Z,13.50
2023-01-01T23:50:35.312Z,13.51
2023-01-01T23:52:38.978Z,13.48
2023-01-01T23:54:41.539Z,13.49
2023-01-01T23:56:44.159Z,13.45
2023-01-01T23:58:46.796Z,13.42
